Airfield :
LOGIN :

Register | Disclaimer

   EN    FR    IT 

 










Legend :    VFR   Marginal VFR   IFR   Intensive IFR   Very Intensive IFR
Visi :
Ceiling :
>= 8 km
>= 3000ft
5 to 8 km
1000 to 3000 ft
1500m to 5 km
500 to 1000 ft
800 to 1500m
200 to 500 ft
< 800m
< 200 ft
Symbols :   Thunderstorms  Fog  Heavy snow  Heavy precipitations  Wind > 20 kt
SIGMETs :     Misc.  Thunderstorms  Icing  Turbulence  Mountain Waves  Volcanic Ashes






- Airport Elevation : 821 ft
- IATA code : LYS


LFLL - Lyon St Exupéry / Satolas

CURRENT METAR :
  • 021900Z 35010KT CAVOK 21/12 Q1017 NOSIG

EXPIRED METARs :
  • 021830Z 34013KT CAVOK 22/12 Q1017 NOSIG
  • 021800Z 34015KT CAVOK 22/12 Q1016 NOSIG
  • 021730Z 35014KT 9999 SCT048 FEW050TCU SCT060 23/13 Q1016 NOSIG
  • 021700Z 34019KT 9999 SCT048 FEW050TCU SCT060 24/13 Q1016 NOSIG
  • 021630Z 36018KT 9999 SCT048 FEW050TCU SCT056 25/14 Q1015 NOSIG

TAF TAF LFLL
Valid from the 02 at 18:00 until the 04 at 00:00 UTC


021700Z 0218/0324 36010KT 9999 SCT050 SCT060
PROB40
TEMPO 0218/0220 FEW050TCU
PROB30
TEMPO 0218/0219 -SHRA SCT045TCU BKN060
BECMG 0220/0222 33005KT CAVOK
TEMPO 0308/0310 SCT050
BECMG 0310/0312 36015KT
BECMG 0321/0324 34005KT



MET'MAP, your aeronautical weather chart ! - Copyright ORBIFLY December 2007 - Disclaimer

ORBIFLY MET'MAP TEAM :

Programming & Development : Alexandra Zaïnal
Concept & original design : Baudouin d'Aumeries
Assistance for programming : Marc-Olivier Méhu
Technical & hardware support : Manuel Goepfert

Contact : metmap@orbifly.com




SOURCES & CREDITS :

   NOAA